Latest Weather Observations for Ngayawili (Elcho Island)

IDD60801

Issued at 9:31 am CST Saturday 3 December 2016 (issued every 30 minutes, with the page automatically refreshed every 10 minutes)

About weather observations | Map of weather stations | Latest weather observations for NT | Other Formats
Station Details ID: 014517 Name: NGAYAWILI Lat: -12.00 Lon: 135.57 Height: 8.1 m
Data from the previous 72 hours. | See also: Recent months at Ngayawili (Elcho Island)
Date/Time
CST
Temp
°C
App
Temp
°C
Dew
Point
°C
Rel
Hum
%
Delta-T
°C
Wind Press
QNH
hPa
Press
MSL
hPa
Rain since
9am
mm
Dir  Spd
km/h
Gust
km/h
Spd
kts
Gust
kts
03/09:30am 31.7 33.6 22.1 56 6.5 ENE 15 24 8 13 1011.4 1011.3 0.0
03/09:00am 31.7 34.5 23.0 60 6.0 NE 13 20 7 11 1011.3 1011.2 1.8
03/08:30am 30.9 33.6 22.8 62 5.5 ENE 13 20 7 11 1011.0 1010.9 1.8
03/08:00am 29.9 33.1 23.1 67 4.7 E 11 19 6 10 1010.9 1010.8 1.8
03/07:30am 28.8 32.8 23.7 74 3.5 ENE 9 13 5 7 1010.7 1010.6 1.8
03/07:00am 27.4 31.8 23.8 81 2.5 E 7 11 4 6 1010.7 1010.6 1.8
03/06:30am 25.6 29.6 23.8 90 1.2 E 9 11 5 6 1010.3 1010.2 1.8
03/06:00am 24.2 28.1 23.0 93 0.8 E 7 11 4 6 1009.9 1009.8 1.8
03/05:30am 24.9 29.0 23.3 91 1.1 E 7 9 4 5 1009.3 1009.2 1.8
03/05:00am 25.3 29.5 23.5 90 1.2 E 7 9 4 5 1009.3 1009.2 1.8
03/04:30am 26.2 30.4 23.5 85 1.8 E 7 9 4 5 1009.1 1009.0 1.8
03/04:00am 26.5 30.8 23.6 84 2.0 E 7 11 4 6 1008.9 1008.8 1.8
03/03:30am 26.7 30.8 24.0 85 1.9 ENE 9 11 5 6 1009.1 1009.0 1.8
03/03:00am 26.6 30.8 24.1 86 1.7 E 9 9 5 5 1009.1 1009.0 1.8
03/02:30am 26.6 31.2 24.1 86 1.7 ENE 7 9 4 5 1009.3 1009.2 1.8
03/02:00am 26.8 31.5 24.3 86 1.7 E 7 9 4 5 1009.2 1009.1 1.8
03/01:30am 27.3 32.2 24.4 84 2.0 ENE 6 9 3 5 1009.3 1009.2 1.8
03/01:00am 27.5 32.4 24.6 84 2.0 ENE 7 9 4 5 1009.4 1009.3 1.8
03/12:30am 27.5 32.4 24.6 84 2.0 E 7 11 4 6 1009.8 1009.7 1.8
03/12:00am 27.6 32.0 24.4 83 2.2 E 9 11 5 6 1010.2 1010.1 1.8
 
Date/Time
CST
Temp
°C
App
Temp
°C
Dew
Point
°C
Rel
Hum
%
Delta-T
°C
Wind Press
QNH
hPa
Press
MSL
hPa
Rain since
9am
mm
Dir  Spd
km/h
Gust
km/h
Spd
kts
Gust
kts
02/11:30pm 27.8 32.6 24.4 82 2.4 ENE 7 11 4 6 1010.4 1010.3 1.8
02/11:00pm 27.9 32.8 24.7 83 2.2 ENE 7 9 4 5 1010.6 1010.5 1.8
02/10:30pm 28.1 33.2 24.9 83 2.2 ENE 7 11 4 6 1010.4 1010.3 1.8
02/10:00pm 28.3 32.9 24.7 81 2.5 ENE 9 11 5 6 1010.0 1009.9 1.8
02/09:30pm 28.1 32.7 24.7 82 2.4 ENE 9 11 5 6 1010.0 1009.9 1.8
02/09:00pm 27.9 32.6 24.3 81 2.5 E 7 9 4 5 1009.6 1009.5 1.8
02/08:30pm 28.2 32.8 24.2 79 2.8 ENE 7 9 4 5 1009.3 1009.2 1.8
02/08:00pm 28.1 32.5 23.5 76 3.2 E 6 11 3 6 1009.0 1008.9 1.8
02/07:30pm 28.6 32.3 23.3 73 3.6 ENE 9 11 5 6 1008.5 1008.4 1.8
02/07:00pm 28.5 30.8 21.3 65 4.8 ENE 11 15 6 8 1008.1 1008.0 1.8
02/06:30pm 28.9 30.1 19.8 58 6.0 ENE 13 19 7 10 1008.2 1008.1 1.8
02/06:00pm 30.5 31.3 22.4 62 5.5 NE 22 33 12 18 1008.4 1008.3 1.8
02/05:30pm 31.6 32.4 21.7 55 6.7 NNE 20 28 11 15 1008.1 1008.0 1.8
02/05:00pm 32.4 33.9 23.1 58 6.4 N 20 28 11 15 1007.8 1007.7 1.8
02/04:30pm 32.7 34.3 23.3 57 6.5 NNE 20 24 11 13 1007.7 1007.6 1.8
02/04:00pm 32.0 33.3 23.3 60 6.0 N 22 26 12 14 1007.7 1007.6 1.8
02/03:30pm 32.7 34.4 24.7 62 5.6 N 24 30 13 16 1007.7 1007.6 1.8
02/03:00pm 32.4 35.2 25.2 66 5.1 N 20 26 11 14 1007.7 1007.6 1.8
02/02:30pm 32.7 33.9 23.9 60 6.1 N 24 30 13 16 1008.0 1007.9 1.8
02/02:00pm 32.4 34.3 25.0 65 5.2 N 24 28 13 15 1008.4 1008.3 1.8
02/01:30pm 32.2 34.4 25.5 67 4.8 N 24 28 13 15 1008.6 1008.5 1.8
02/01:00pm 32.0 35.2 25.6 69 4.5 N 19 22 10 12 1009.1 1009.0 1.8
02/12:30pm 32.0 35.4 25.3 67 4.7 N 17 20 9 11 1009.4 1009.3 1.8
02/12:00pm 31.3 34.3 24.7 68 4.6 N 17 19 9 10 1009.9 1009.8 1.8
02/11:30am 31.1 35.6 25.2 71 4.2 N 11 15 6 8 1010.3 1010.2 1.8
02/11:00am 30.0 34.8 24.4 72 3.9 NNW 7 11 4 6 1011.0 1010.9 1.8
02/10:30am 28.8 30.9 22.5 68 4.3 NNW 15 17 8 9 1011.3 1011.2 1.8
02/10:00am 28.0 30.9 24.4 81 2.5 NNW 17 24 9 13 1011.6 1011.5 1.8
02/09:30am 26.7 29.2 23.8 84 2.0 N 17 24 9 13 1011.8 1011.7 1.6
02/09:00am 29.5 31.2 24.1 72 3.7 N 22 28 12 15 1011.2 1011.1 -
02/08:30am 31.1 34.3 23.0 62 5.6 NE 11 17 6 9 1010.9 1010.8 -
02/08:00am 30.2 32.5 22.1 62 5.5 NE 13 22 7 12 1010.8 1010.7 -
02/07:30am 29.5 34.7 24.8 76 3.3 ENE 6 11 3 6 1010.3 1010.2 -
02/07:00am 28.1 31.7 23.7 77 3.0 NNW 11 20 6 11 1009.9 1009.8 -
02/06:30am 28.0 32.3 23.6 77 3.0 SE 7 9 4 5 1009.5 1009.4 -
02/06:00am 27.5 31.5 23.7 80 2.6 SE 9 9 5 5 1009.2 1009.1 -
02/05:30am 28.2 32.5 23.6 76 3.2 ENE 7 9 4 5 1008.8 1008.7 -
02/05:00am 28.6 33.0 24.4 78 2.9 NE 9 13 5 7 1008.5 1008.4 -
02/04:30am 29.1 32.0 24.4 76 3.3 N 17 22 9 12 1008.3 1008.2 -
02/04:00am 29.3 32.6 25.1 78 3.0 N 17 24 9 13 1008.4 1008.3 -
02/03:30am 29.3 32.3 25.3 79 2.8 N 19 24 10 13 1008.2 1008.1 -
02/03:00am 29.2 31.9 24.7 77 3.1 N 19 22 10 12 1008.2 1008.1 -
02/02:30am 29.3 33.0 25.1 78 3.0 N 15 20 8 11 1008.2 1008.1 -
02/02:00am 29.3 31.9 24.6 76 3.3 N 19 24 10 13 1008.1 1008.0 -
02/01:30am 29.5 32.0 24.8 76 3.3 N 20 26 11 14 1008.0 1007.9 -
02/01:00am 29.4 33.2 24.7 76 3.3 NNE 13 19 7 10 1008.2 1008.1 -
02/12:30am 29.4 32.3 24.5 75 3.4 N 17 22 9 12 1008.8 1008.7 -
02/12:00am 29.6 32.1 24.5 74 3.6 NNE 19 24 10 13 1008.7 1008.6 -
 
Date/Time
CST
Temp
°C
App
Temp
°C
Dew
Point
°C
Rel
Hum
%
Delta-T
°C
Wind Press
QNH
hPa
Press
MSL
hPa
Rain since
9am
mm
Dir  Spd
km/h
Gust
km/h
Spd
kts
Gust
kts
01/11:30pm 29.5 32.6 24.1 72 3.8 NNE 15 22 8 12 1008.9 1008.8 -
01/11:00pm 29.6 32.1 24.5 74 3.6 N 19 24 10 13 1009.2 1009.1 -
01/10:30pm 29.9 32.0 24.1 71 4.0 N 20 26 11 14 1009.2 1009.1 -
01/10:00pm 30.1 32.3 24.0 70 4.2 N 19 22 10 12 1009.0 1008.9 -
01/09:00pm 29.7 32.5 23.6 69 4.2 NNE 15 19 8 10 1008.4 1008.3 0.0
01/08:30pm 29.9 32.7 23.6 69 4.4 N 15 17 8 9 1008.2 1008.1 0.0
01/08:00pm 30.1 33.3 24.3 71 4.0 N 15 19 8 10 1008.0 1007.9 0.0
01/07:30pm 30.0 32.4 24.6 73 3.8 N 20 24 11 13 1007.0 1006.9 0.0
01/07:00pm 30.2 32.6 24.6 72 3.9 N 20 26 11 14 1006.9 1006.8 0.0
01/06:30pm 30.1 31.7 23.8 69 4.4 N 22 30 12 16 1006.8 1006.7 0.0
01/06:00pm 30.3 32.9 24.0 69 4.4 N 17 22 9 12 1006.9 1006.8 0.0
01/05:30pm 30.6 32.2 23.8 67 4.7 N 22 26 12 14 1006.5 1006.4 0.0
01/05:00pm 31.0 33.1 24.1 66 4.8 N 20 24 11 13 1006.3 1006.2 0.0
01/04:30pm 31.4 33.4 24.5 67 4.8 N 22 26 12 14 1006.0 1005.9 0.0
01/04:00pm 32.1 34.3 24.9 65 5.1 N 22 26 12 14 1005.8 1005.7 0.0
01/03:30pm 32.1 34.4 24.4 63 5.4 N 20 26 11 14 1006.4 1006.3 0.0
01/03:00pm 32.6 35.4 24.9 64 5.4 NNW 19 22 10 12 1007.0 1006.9 0.0
01/02:30pm 32.7 35.0 24.5 62 5.8 NNW 20 24 11 13 1007.3 1007.2 0.0
01/02:00pm 33.2 36.9 25.7 64 5.3 NNW 17 22 9 12 1007.6 1007.5 0.0
01/01:30pm 32.6 36.0 25.2 65 5.2 NNW 17 20 9 11 1007.9 1007.8 0.0
01/01:00pm 32.9 36.4 25.4 64 5.3 NNW 17 20 9 11 1008.4 1008.3 0.0
01/12:30pm 32.5 35.6 24.8 64 5.4 NNW 17 20 9 11 1008.7 1008.6 0.0
01/12:00pm 32.5 36.0 24.8 64 5.4 N 15 17 8 9 1009.0 1008.9 0.0
01/11:30am 32.2 35.4 25.0 65 5.1 N 17 20 9 11 1009.2 1009.1 0.0
01/11:00am 32.1 35.5 25.2 67 4.9 NNW 17 20 9 11 1009.4 1009.3 0.0
01/10:30am 32.0 35.5 24.8 65 5.1 N 15 20 8 11 1009.8 1009.7 0.0
01/10:00am 31.8 35.2 25.2 68 4.7 N 17 20 9 11 1010.1 1010.0 0.0
01/09:30am 31.5 35.0 24.9 68 4.7 NNW 15 19 8 10 1010.1 1010.0 0.0
01/09:00am 31.0 34.9 25.4 72 4.0 N 15 19 8 10 1010.2 1010.1 8.4
01/08:30am 29.5 35.0 25.3 78 3.0 NNW 6 7 3 4 1010.0 1009.9 8.4
01/08:00am 28.9 35.5 25.3 81 2.5 CALM 0 0 0 0 1009.7 1009.6 8.4
01/07:30am 28.3 33.2 25.3 84 2.1 SE 9 11 5 6 1009.7 1009.6 8.4
01/07:00am 26.9 32.1 25.1 90 1.3 ESE 7 9 4 5 1009.2 1009.1 8.4
01/06:30am 26.3 30.7 25.1 93 0.8 SE 11 13 6 7 1009.0 1008.9 8.4
01/06:00am 26.1 31.0 25.2 95 0.6 SE 9 13 5 7 1008.6 1008.5 8.4
01/05:30am 26.1 31.3 25.1 94 0.7 ESE 7 9 4 5 1008.2 1008.1 8.4
01/05:00am 26.1 31.3 25.1 94 0.7 ESE 7 7 4 4 1008.0 1007.9 8.4
01/04:30am 26.1 31.2 24.9 93 0.8 ESE 7 9 4 5 1007.8 1007.7 8.4
01/04:00am 26.3 30.7 25.1 93 0.8 SSE 11 13 6 7 1007.9 1007.8 8.4
01/03:30am 26.4 31.4 25.4 94 0.7 SE 9 11 5 6 1007.9 1007.8 8.4
01/03:00am 26.4 31.4 25.4 94 0.7 SE 9 9 5 5 1007.9 1007.8 8.4
01/02:30am 26.5 32.0 25.3 93 0.8 SE 6 7 3 4 1008.0 1007.9 8.4
01/02:00am 26.5 31.8 25.3 93 0.8 SE 7 9 4 5 1008.1 1008.0 8.4
01/01:30am 26.5 31.7 25.1 92 1.0 SE 7 9 4 5 1008.2 1008.1 8.4
01/01:00am 26.7 31.5 25.1 91 1.1 SSE 9 11 5 6 1008.6 1008.5 8.4
01/12:30am 27.0 31.9 25.2 90 1.3 SSE 9 13 5 7 1008.9 1008.8 8.4
01/12:00am 27.2 32.3 25.0 88 1.5 SE 7 9 4 5 1009.0 1008.9 8.4
 
Date/Time
CST
Temp
°C
App
Temp
°C
Dew
Point
°C
Rel
Hum
%
Delta-T
°C
Wind Press
QNH
hPa
Press
MSL
hPa
Rain since
9am
mm
Dir  Spd
km/h
Gust
km/h
Spd
kts
Gust
kts
30/11:30pm 27.2 32.4 24.8 87 1.7 SE 6 9 3 5 1009.2 1009.1 8.4
30/11:00pm 27.7 32.6 24.7 84 2.1 SE 7 9 4 5 1009.2 1009.1 8.4
30/10:30pm 29.0 33.9 24.6 77 3.1 NW 7 9 4 5 1008.6 1008.5 8.4
30/10:00pm 29.3 33.5 24.8 77 3.1 NW 11 15 6 8 1008.7 1008.6 8.4
30/09:30pm 29.2 32.5 24.5 76 3.3 WNW 15 17 8 9 1008.5 1008.4 8.4
30/09:00pm 29.3 31.6 24.4 75 3.4 NW 20 24 11 13 1008.0 1007.9 8.4
30/08:30pm 29.2 31.9 25.0 78 3.0 NW 20 26 11 14 1007.9 1007.8 8.4
30/08:00pm 29.4 31.8 24.3 74 3.5 WNW 19 24 10 13 1007.8 1007.7 8.4
30/07:30pm 29.4 32.4 24.0 72 3.7 W 15 20 8 11 1008.1 1008.0 8.4
30/07:00pm 29.4 32.5 23.6 71 4.0 WSW 13 17 7 9 1008.0 1007.9 8.4
30/06:30pm 29.3 32.3 23.3 70 4.1 W 13 15 7 8 1008.2 1008.1 8.4
30/06:00pm 29.3 32.7 23.3 70 4.1 WNW 11 13 6 7 1008.2 1008.1 8.4
30/05:30pm 29.5 32.3 23.7 71 4.0 NNW 15 17 8 9 1007.4 1007.3 8.4
30/05:00pm 29.7 31.4 21.6 61 5.4 N 15 17 8 9 1006.8 1006.7 8.4
30/04:30pm 30.0 30.0 21.7 61 5.6 N 24 30 13 16 1006.7 1006.6 8.4
30/04:00pm 30.5 29.1 20.4 54 6.7 N 28 32 15 17 1006.8 1006.7 8.4
30/03:30pm 29.8 30.8 22.8 66 4.8 N 22 28 12 15 1006.8 1006.7 8.4
30/03:00pm 29.4 30.5 22.4 66 4.8 NNE 20 28 11 15 1007.0 1006.9 8.4
30/02:30pm 27.9 29.8 23.7 78 2.9 NNE 20 32 11 17 1007.7 1007.6 8.4
30/02:00pm 26.7 31.0 24.2 86 1.7 NNE 9 15 5 8 1008.7 1008.6 8.4
30/01:30pm 26.1 30.3 24.1 89 1.4 NE 9 13 5 7 1009.0 1008.9 8.4
30/01:00pm 25.6 29.2 23.8 90 1.2 ESE 11 15 6 8 1009.4 1009.3 8.4
30/12:30pm 25.3 28.5 23.7 91 1.1 ESE 13 20 7 11 1010.6 1010.5 8.4
30/12:00pm 24.9 27.9 24.0 95 0.6 SE 15 22 8 12 1010.2 1010.1 8.4
30/11:30am 24.6 27.0 23.7 95 0.6 SE 17 24 9 13 1010.5 1010.4 8.0
30/11:00am 24.5 26.3 23.6 95 0.6 SSE 20 30 11 16 1010.3 1010.2 6.8
30/10:30am 25.4 25.5 23.3 88 1.4 SSE 28 44 15 24 1010.0 1009.9 0.0
30/10:21am 25.4 25.0 22.3 83 2.1 SSE 28 48 15 26 1009.9 1009.8 0.0
30/10:00am 30.5 34.7 26.0 77 3.2 N 15 20 8 11 1010.0 1009.9 0.0

Other Formats:

Comma delimited format used in spreadsheet applications
http://www.bom.gov.au/fwo/IDD60801/IDD60801.95146.axf

JavaScript Object Notation format (JSON) in row-major order
http://www.bom.gov.au/fwo/IDD60801/IDD60801.95146.json